Flight Track Log - Related Links

Times and Time Zones

All times are in EST time to prevent confusion due to time zone crossing. See the N825TB flight status page for this flight to view local times or setup timezone preferences in your user account.

Time Position Orientation Groundspeed Altitude Reporting Facility
EST Latitude Longitude Course Direction KTS MPH feet Rate Location/Type
Sun 09:43:46 AM 32.7648 -96.7234 130° Southeast 289 333 6,300  Level FlightAware ADS-B
Sun 09:44:02 AM 32.7543 -96.7085 130° Southeast 290 334 7,100 3,000 Climbing FlightAware ADS-B
Sun 09:44:22 AM 32.7345 -96.6786 128° Southeast 296 341 8,100 2,488 Climbing FlightAware ADS-B
Sun 09:44:43 AM 32.7204 -96.6560 127° Southeast 300 345 8,800 2,351 Climbing FlightAware ADS-B
Sun 09:45:36 AM 32.7024 -96.5635 103° East 325 374 11,000 2,354 Climbing FlightAware ADS-B
Sun 09:46:53 AM 32.7334 -96.4209 75° East 367 422 13,900 2,236 Climbing FlightAware ADS-B
Sun 09:47:26 AM 32.7507 -96.3540 73° East 387 445 15,100 2,351 Climbing FlightAware ADS-B
Sun 09:48:07 AM 32.7720 -96.2675 74° East 404 465 16,800 2,462 Climbing FlightAware ADS-B
Sun 09:48:44 AM 32.7991 -96.1921 67° East 427 491 18,300 1,800 Climbing FlightAware ADS-B
Sun 09:49:17 AM 32.8236 -96.1165 69° East 456 525 18,900 1,143 Climbing FlightAware ADS-B
Sun 09:49:26 AM 32.8247 -96.1021 85° East 459 528 19,100 2,315 Climbing FlightAware ADS-B
Sun 09:52:21 AM 32.7970 -95.6237 94° East 498 573 26,000 2,293 Climbing FlightAware ADS-B
Sun 09:53:11 AM 32.7834 -95.4846 97° East 501 577 27,700 1,915 Climbing FlightAware ADS-B
Sun 09:54:42 AM 32.7582 -95.2293 97° East 529 609 30,500 1,770 Climbing FlightAware ADS-B
Sun 09:55:30 AM 32.7442 -95.0903 97° East 530 610 31,800 1,481 Climbing FlightAware ADS-B
Sun 09:56:03 AM 32.7340 -94.9915 97° East 546 628 32,500 1,366 Climbing FlightAware ADS-B
Sun 09:57:11 AM 32.7072 -94.7875 99° East 552 635 34,100 1,380 Climbing FlightAware ADS-B
Sun 09:57:43 AM 32.6779 -94.6986 111° Southeast 550 633 34,800 1,317 Climbing FlightAware ADS-B
Sun 09:57:52 AM 32.6678 -94.6762 118° Southeast 541 623 35,000 1,793 Climbing FlightAware ADS-B
Sun 09:59:10 AM 32.5633 -94.4883 123° Southeast 516 594 37,400 1,778 Climbing FlightAware ADS-B
Sun 09:59:40 AM 32.5231 -94.4181 124° Southeast 513 590 38,200 1,333 Climbing FlightAware ADS-B
Sun 10:00:13 AM 32.4791 -94.3408 124° Southeast 514 592 38,800 1,154 Climbing FlightAware ADS-B
Sun 10:00:58 AM 32.4193 -94.2363 124° Southeast 508 585 39,700 1,247 Climbing FlightAware ADS-B
Sun 10:01:30 AM 32.3781 -94.1645 124° Southeast 504 580 40,400 1,238 Climbing FlightAware ADS-B
Sun 10:02:01 AM 32.3366 -94.0924 124° Southeast 502 578 41,000 1,048 Climbing FlightAware ADS-B
Sun 10:02:33 AM 32.2948 -94.0203 124° Southeast 500 575 41,500 947 Climbing FlightAware ADS-B
Sun 10:03:17 AM 32.2381 -93.9226 124° Southeast 497 572 42,200 895 Climbing FlightAware ADS-B
Sun 10:04:27 AM 32.1477 -93.7670 124° Southeast 497 572 43,200 670 Climbing FlightAware ADS-B
Sun 10:06:25 AM 31.9954 -93.5074 125° Southeast 495 570 44,300 533 Climbing FlightAware ADS-B
Sun 10:07:16 AM 31.9285 -93.3933 125° Southeast 493 567 44,700 429 Climbing FlightAware ADS-B
Sun 10:07:49 AM 31.8864 -93.3216 125° Southeast 492 566 44,900 265 Climbing FlightAware ADS-B
Sun 10:08:24 AM 31.8408 -93.2442 125° Southeast 494 568 45,000 88 Climbing FlightAware ADS-B
Sun 10:08:57 AM 31.7974 -93.1705 125° Southeast 498 573 45,000  Level FlightAware ADS-B
Sun 10:09:29 AM 31.7557 -93.1000 125° Southeast 502 578 45,000  Level FlightAware ADS-B
Sun 10:10:35 AM 31.6683 -92.9521 125° Southeast 502 578 45,000  Level FlightAware ADS-B
Sun 10:11:40 AM 31.5921 -92.8242 125° Southeast 502 578 45,000  Level FlightAware ADS-B
Sun 10:13:49 AM 31.4099 -92.5197 125° Southeast 502 578 45,000  Level FlightAware ADS-B
Sun 10:14:46 AM 31.3336 -92.3927 125° Southeast 502 578 45,000  Level FlightAware ADS-B
Sun 10:15:21 AM 31.2874 -92.3162 125° Southeast 505 581 45,000  Level FlightAware ADS-B
Sun 10:15:55 AM 31.2567 -92.2656 125° Southeast 505 581 45,000  Level Houston Center
Sun 10:16:56 AM 31.1750 -92.1319 126° Southeast 505 581 45,000  Level Houston Center
Sun 10:17:58 AM 31.0800 -91.9744 125° Southeast 502 578 45,000  Level Houston Center
Sun 10:23:34 AM 30.6238 -91.2319 125° Southeast 499 574 45,000  Level FlightAware ADS-B
Sun 10:24:26 AM 30.5531 -91.1181 126° Southeast 500 575 45,000  Level FlightAware ADS-B
Sun 10:24:56 AM 30.5124 -91.0527 126° Southeast 498 573 45,000  Level FlightAware ADS-B
Sun 10:26:59 AM 30.3473 -90.7889 126° Southeast 497 572 45,000  Level FlightAware ADS-B
Sun 10:28:09 AM 30.2520 -90.6370 126° Southeast 497 572 45,000  Level FlightAware ADS-B
Sun 10:29:54 AM 30.1106 -90.4130 126° Southeast 498 573 45,000  Level FlightAware ADS-B
Sun 10:30:37 AM 30.0513 -90.3195 126° Southeast 499 574 45,000  Level FlightAware ADS-B
Sun 10:31:41 AM 29.9823 -90.1696 118° Southeast 509 586 45,000  Level FlightAware ADS-B
Sun 10:32:21 AM 29.9456 -90.0833 118° Southeast 508 585 45,000  Level Houston Center
Sun 10:33:23 AM 29.8856 -89.9375 115° Southeast 509 586 45,000 -49 Level Houston Center
Sun 10:34:24 AM 29.8250 -89.7917 116° Southeast 508 585 44,900  Descending Houston Center
Sun 10:35:26 AM 29.7658 -89.6472 115° Southeast 506 582 45,000 48 Climbing Houston Center
Sun 10:36:28 AM 29.7047 -89.5022 116° Southeast 506 582 45,000  Level Houston Center
Sun 10:37:29 AM 29.6328 -89.3281 115° Southeast 506 582 45,000 -49 Level Houston Center
Sun 10:38:31 AM 29.5725 -89.1833 116° Southeast 507 583 44,900  Descending Houston Center
Sun 10:39:33 AM 29.5122 -89.0378 115° Southeast 506 582 45,000 49 Climbing Houston Center
Sun 10:40:34 AM 29.4514 -88.8939 116° Southeast 504 580 45,000  Level Houston Center
Sun 10:41:36 AM 29.3894 -88.7494 116° Southeast 505 581 45,000  Level Houston Center
Sun 10:42:38 AM 29.3281 -88.6064 116° Southeast 502 578 45,000  Level Houston Center
Sun 10:43:39 AM 29.2661 -88.4619 116° Southeast 504 580 45,000  Level Houston Center
Sun 10:44:41 AM 29.1919 -88.2894 116° Southeast 505 581 45,000  Level Houston Center
Sun 10:45:43 AM 29.1303 -88.1453 116° Southeast 506 582 45,000  Level Houston Center
Sun 10:46:45 AM 29.0681 -87.9997 116° Southeast 505 581 45,000  Level Houston Center
Sun 10:47:46 AM 29.0056 -87.8561 116° Southeast 504 580 45,000  Level Houston Center
Sun 10:48:48 AM 28.9431 -87.7133 117° Southeast 506 582 45,000  Level Houston Center
Sun 10:49:50 AM 28.8800 -87.5692 117° Southeast 507 583 45,000  Level Houston Center
Sun 10:50:52 AM 28.8178 -87.4264 116° Southeast 506 582 45,000  Level Houston Center
Sun 10:51:54 AM 28.7425 -87.2558 117° Southeast 505 581 45,000  Level Houston Center
Sun 10:52:55 AM 28.6786 -87.1142 117° Southeast 504 580 45,000  Level Houston Center
Sun 10:53:57 AM 28.6167 -86.9711 116° Southeast 506 582 45,000  Level Houston Center
Sun 10:54:59 AM 28.5531 -86.8303 117° Southeast 504 580 45,000  Level Houston Center
Sun 10:56:16 AM 28.4667 -86.6375 117° Southeast 507 583 45,000  Level Jacksonville Center
Sun 10:57:16 AM 28.3981 -86.4886 118° Southeast 513 590 45,000  Level Jacksonville Center
Sun 10:58:16 AM 28.3369 -86.3544 117° Southeast 507 583 45,000  Level Jacksonville Center
Sun 10:59:16 AM 28.2739 -86.2133 117° Southeast 507 583 45,000  Level Jacksonville Center
Sun 11:00:16 AM 28.2108 -86.0744 117° Southeast 502 578 45,000  Level Jacksonville Center
Sun 11:01:16 AM 28.1453 -85.9383 119° Southeast 502 578 45,000  Level Jacksonville Center
Sun 11:02:16 AM 28.0817 -85.7928 116° Southeast 508 585 45,000  Level Jacksonville Center
Sun 11:03:16 AM 28.0161 -85.6525 118° Southeast 508 585 45,000  Level Jacksonville Center
Sun 11:05:03 AM 27.9022 -85.4047 117° Southeast 501 577 45,000  Level Miami Center
Sun 11:06:03 AM 27.8394 -85.2689 118° Southeast 496 571 45,000 -50 Level Miami Center
Sun 11:07:03 AM 27.7728 -85.1281 118° Southeast 501 577 44,900  Descending Miami Center
Sun 11:08:03 AM 27.7094 -84.9922 118° Southeast 501 577 45,000 50 Climbing Miami Center
Sun 11:09:03 AM 27.6406 -84.8492 119° Southeast 507 583 45,000  Level Miami Center
Sun 11:10:03 AM 27.5750 -84.7114 118° Southeast 507 583 45,000  Level Miami Center
Sun 11:11:03 AM 27.5117 -84.5739 117° Southeast 501 577 45,000  Level Miami Center
Sun 11:12:03 AM 27.4522 -84.4389 116° Southeast 501 577 45,000  Level Miami Center
Sun 11:13:03 AM 27.3842 -84.3036 120° Southeast 495 570 45,000  Level Miami Center
Sun 11:14:03 AM 27.3203 -84.1664 118° Southeast 495 570 45,000  Level Miami Center
Sun 11:15:03 AM 27.2539 -84.0317 119° Southeast 495 570 45,000  Level Miami Center
Sun 11:16:03 AM 27.1919 -83.8925 117° Southeast 490 564 45,000  Level Miami Center
Sun 11:17:03 AM 27.1253 -83.7603 120° Southeast 495 570 45,000  Level Miami Center
Sun 11:18:03 AM 27.0608 -83.6236 118° Southeast 490 564 45,000  Level Miami Center
Sun 11:19:03 AM 26.9964 -83.4872 118° Southeast 495 570 45,000  Level Miami Center
Sun 11:20:03 AM 26.9314 -83.3531 118° Southeast 495 570 45,000  Level Miami Center
Sun 11:21:03 AM 26.8644 -83.2167 119° Southeast 495 570 45,000 -450 Level Miami Center
Sun 11:22:03 AM 26.7994 -83.0831 119° Southeast 489 563 44,100 -1,200 Descending Miami Center
Sun 11:23:03 AM 26.7339 -82.9517 119° Southeast 495 570 42,600 -1,750 Descending Miami Center
Sun 11:24:03 AM 26.6725 -82.8208 118° Southeast 483 556 40,600 -2,000 Descending Miami Center
Sun 11:25:03 AM 26.6050 -82.6875 119° Southeast 483 556 38,600 -2,000 Descending Miami Center
Sun 11:26:03 AM 26.5414 -82.5544 118° Southeast 483 556 36,600 -2,050 Descending Miami Center
Sun 11:27:03 AM 26.4733 -82.4236 120° Southeast 483 556 34,500 -2,150 Descending Miami Center
Sun 11:28:03 AM 26.4075 -82.2858 118° Southeast 489 563 32,300 -2,200 Descending Miami Center
Sun 11:29:03 AM 26.3394 -82.1531 120° Southeast 494 568 30,100 -2,200 Descending Miami Center
Sun 11:30:03 AM 26.2733 -82.0181 119° Southeast 494 568 27,900 -2,100 Descending Miami Center
Sun 11:31:03 AM 26.2147 -81.9000 119° Southeast 489 563 25,900 -2,250 Descending Miami Center
Sun 11:32:03 AM 26.1525 -81.7700 118° Southeast 489 563 23,400 -2,450 Descending Miami Center
Sun 11:33:03 AM 26.1067 -81.6364 111° Southeast 476 548 21,000 -2,400 Descending Miami Center
Sun 11:34:03 AM 26.0692 -81.5100 108° East 453 521 18,600 -2,350 Descending Miami Center
Sun 11:35:03 AM 26.0289 -81.3906 111° Southeast 430 495 16,300 -2,350 Descending Miami Center
Sun 11:36:03 AM 25.9886 -81.2711 111° Southeast 412 474 13,900 -2,250 Descending Miami Center
Sun 11:37:03 AM 25.9544 -81.1614 109° East 397 457 11,800 -2,211 Descending Miami Center
Sun 11:37:19 AM 25.9369 -81.1192 115° Southeast 374 430 11,100 -1,400 Descending Miami Center
Sun 11:38:03 AM 25.9219 -81.0564 105° East 377 434 10,400 -692 Descending Miami Center
Sun 11:39:03 AM 25.8933 -80.9583 108° East 352 405 9,900 -545 Descending Miami Center
Sun 11:39:53 AM 25.8492 -80.8944 128° Southeast 288 331 9,400 -700 Descending Miami Center
Sun 11:40:03 AM 25.8494 -80.8922 82° East 318 366 9,200 -1,574 Descending Miami Center
Sun 11:40:54 AM 25.7814 -80.8553 154° Southeast 279 321 7,800 -1,500 Descending Miami Center
Sun 11:41:03 AM 25.7817 -80.8483 87° East 274 315 7,700 -1,279 Descending Miami Center
Sun 11:41:55 AM 25.7072 -80.8136 157° South 283 326 6,500 -1,200 Descending Miami Center
Sun 11:42:03 AM 25.7094 -80.8114 42° Northeast 274 315 6,500 -1,869 Level Miami Center
Sun 11:42:56 AM 25.6375 -80.7744 155° Southeast 278 320 4,600 -1,900 Descending Miami Center
Sun 11:43:03 AM 25.6417 -80.7722 26° Northeast 279 321 4,600 -1,452 Level Miami Center
Sun 11:43:58 AM 25.6289 -80.6958 100° East 253 291 3,100 -1,600 Descending Miami Center
Sun 11:44:03 AM 25.6314 -80.6844 76° East 237 273 3,000 -984 Descending Miami Center
Sun 11:44:59 AM 25.6331 -80.6200 88° East 222 255 2,100 -900 Descending Miami Center
Sun 11:45:03 AM 25.6375 -80.6133 54° Northeast 223 257 2,100 -492 Level Miami Center
Sun 11:46:00 AM 25.6325 -80.5556 95° East 199 229 1,600 -500 Descending Miami Center
Sun 11:46:03 AM 25.6369 -80.5533 24° Northeast 212 244 1,600 -393 Level Miami Center
Sun 11:47:01 AM 25.6381 -80.5094 88° East 144 166 1,200 -400 Descending Miami Center
Sun 11:47:03 AM 25.6400 -80.5119 311° West 175 201 1,200 -750 Level Miami Center
Sun 11:47:57 AM 25.6389 -80.4681 92° East 128 147 500 -778 Descending Miami Center
Sun 11:49:00 AM 25.6476 -80.4332 101° East  Level Estimated
Sun 11:56:00 AM 25.6476 -80.4332 101° East  Level Estimated

Login

Don't have an account? Register now (free) for customized features, flight alerts, and more!